Tonypandy, United Kingdom
Current Conditions -  °F | °C
As of 9:50 PM on Friday 24 Oct 2014 (Local Time) from EGDX Reporting Station
Broken Clouds Broken Clouds  
Wind Chill: 55°   Ceiling: 3400
Heat Index: 55°   Visibility: 6mi
Dew Point: 45°   Wind: 15mph
Humidity: 67%   Direction: 290°WNW
Pressure: 29.97"   Gusts: NA
Location:  51.62°N, 3.45°W
Report Text: EGDX 242050Z AUTO 29013KT 9999 BKN034/// 13/07 Q1015
Loading
Personal Weather Stations






























Interactive Weather Map New forecast layout! Learn more

10-Day Weather Forecast

Advertisements
Track Severe Weather on mobile